Observations for LAWRENCE MUNICIPAL, MA (LWM)

KLWM 220738Z AUTO 21014G21KT 10SM -RA SCT021 BKN075 BKN090 22/18 A2984 RMK AO2 RAE0659B21 P0000 T02220183
KLWM 220654Z AUTO 22012KT 10SM -RA OVC021 22/18 A2984 RMK AO2 PK WND 22030/0559 RAE07B36 SLP104 P0000 T02220178 
KLWM 220554Z AUTO 22015G26KT 10SM -RA OVC021 23/17 A2986 RMK AO2 PK WND 23026/0553 RAB49 SLP111 P0000 60000 T02280167 10228 20200 56026 
KLWM 220454Z AUTO 21011G19KT 10SM OVC024 22/16 A2988 RMK AO2 SLP117 T02220161 402280161 
KLWM 220354Z AUTO 21013G21KT 10SM OVC029 22/16 A2991 RMK AO2 SLP127 T02170161   
KLWM 220301Z AUTO 20010G23KT 10SM OVC029 21/16 A2994 RMK AO2 T02110156
KLWM 220254Z AUTO 21013G19KT 10SM FEW021 OVC030 21/16 A2994 RMK AO2 RAB03E17 SLP138 P0000 60000 T02110156 56018 
KLWM 220225Z AUTO 21010G21KT 10SM FEW021 OVC031 21/16 A2996 RMK AO2 RAB03E17 P0000 T02110156
KLWM 220210Z AUTO 21016G22KT 10SM -RA OVC029 21/15 A2995 RMK AO2 RAB03 P0000 T02110150
KLWM 220154Z 20010G17KT 10SM OVC030 21/15 A2996 RMK AO2 SLP143 T02060150
KLWM 220054Z 20013G18KT 10SM OVC033 21/14 A2997 RMK AO2 SLP148 T02060144
KLWM 212354Z 20010G17KT 10SM SCT034 OVC045 20/13 A2999 RMK AO2 SLP156 T02000133 10228 20200 56026   
KLWM 212254Z 20009G17KT 10SM BKN048 20/13 A3002 RMK AO2 SLP164 T02000133
KLWM 212154Z 20010G18KT 10SM OVC043 21/13 A3005 RMK AO2 SLP174 T02110133
KLWM 212054Z 19008G15KT 10SM BKN032 OVC040 21/13 A3007 RMK AO2 SLP183 T02110128 58030   
KLWM 211954Z 20007KT 10SM OVC043 22/13 A3011 RMK AO2 SLP194 T02170128   
KLWM 211854Z 21010G16KT 10SM OVC044 22/13 A3013 RMK AO2 SLP202 T02220128
KLWM 211754Z 17006KT 10SM OVC045 22/12 A3016 RMK AO2 SLP213 T02220117 10228 20172 57036 
KLWM 211654Z 16006KT 10SM SCT041 22/12 A3020 RMK AO2 SLP225 T02220117   
KLWM 211554Z 19007KT 10SM BKN046 21/11 A3023 RMK AO2 SLP237 T02110106   
KLWM 211454Z VRB04KT 10SM OVC050 20/11 A3027 RMK AO2 SLP249 T02000106 58019 
KLWM 211354Z VRB04KT 10SM OVC060 19/10 A3030 RMK AO2 SLP258 T01890100   
KLWM 211254Z VRB06KT 10SM SCT047 OVC090 18/12 A3031 RMK AO2 SLP263 T01830117
KLWM 211154Z 00000KT 10SM OVC055 17/12 A3032 RMK AO2 SLP268 T01720117 10172 20161 51004 
KLWM 211054Z AUTO 00000KT 10SM BKN050 OVC100 16/12 A3032 RMK AO2 SLP267 T01610122   
KLWM 210954Z AUTO 00000KT 10SM OVC050 17/12 A3031 RMK AO2 SLP264 T01670117  
KLWM 210854Z AUTO 00000KT 10SM OVC055 17/12 A3031 RMK AO2 SLP263 T01670122 55003
KLWM 210754Z AUTO 00000KT 10SM OVC055 17/12 A3030 RMK AO2 SLP261 T01670122  
KLWM 210654Z AUTO 11003KT 10SM OVC050 17/12 A3031 RMK AO2 SLP265 T01670122